Terminal Aerodrome Forecast
Issued by NWS Sterling, VA

Current Version | Previous Version | Text Only | Print | Product List | Glossary Off
Versions: 1 2 3 4 5 6 7 8 9 10 11 12 13 14 15 16

120
FTUS41 KLWX 050317 AAA
TAFMRB
TAF AMD
KMRB 050317Z 0503/0524 16005KT P6SM -RA OVC040
     FM050600 18005KT 5SM -RA BR OVC010
     FM050900 19005KT P6SM OVC008
     FM051300 24005KT P6SM OVC020
     FM051600 29010KT P6SM BKN040
     FM052000 31009KT P6SM SCT250=

USA.gov is the U.S. government's official web portal to all federal, state and local government web resources and services.